sensor_id;sensor_type;location;lat;lon;timestamp;temperature;humidity
14053;DHT22;7101;51.600;7.310;2022-10-22T00:01:16;11.70;99.90
14053;DHT22;7101;51.600;7.310;2022-10-22T00:03:44;11.70;99.90
14053;DHT22;7101;51.600;7.310;2022-10-22T00:06:11;11.60;99.90
14053;DHT22;7101;51.600;7.310;2022-10-22T00:08:38;11.60;99.90
14053;DHT22;7101;51.600;7.310;2022-10-22T00:11:09;11.70;99.90
14053;DHT22;7101;51.600;7.310;2022-10-22T00:13:37;11.70;99.90
14053;DHT22;7101;51.600;7.310;2022-10-22T00:16:06;11.70;99.90
14053;DHT22;7101;51.600;7.310;2022-10-22T00:18:34;11.70;99.90
14053;DHT22;7101;51.600;7.310;2022-10-22T00:21:01;11.70;99.90
14053;DHT22;7101;51.600;7.310;2022-10-22T00:23:30;11.70;99.90
14053;DHT22;7101;51.600;7.310;2022-10-22T00:25:57;11.70;99.90
14053;DHT22;7101;51.600;7.310;2022-10-22T00:28:24;11.70;99.90
14053;DHT22;7101;51.600;7.310;2022-10-22T00:30:55;11.70;99.90
14053;DHT22;7101;51.600;7.310;2022-10-22T00:33:23;11.70;99.90
14053;DHT22;7101;51.600;7.310;2022-10-22T00:35:50;11.70;99.90
14053;DHT22;7101;51.600;7.310;2022-10-22T00:38:17;11.70;99.90
14053;DHT22;7101;51.600;7.310;2022-10-22T00:40:45;11.70;99.90
14053;DHT22;7101;51.600;7.310;2022-10-22T00:43:14;11.70;99.90
14053;DHT22;7101;51.600;7.310;2022-10-22T00:45:41;11.70;99.90
14053;DHT22;7101;51.600;7.310;2022-10-22T00:48:10;11.60;99.90
14053;DHT22;7101;51.600;7.310;2022-10-22T00:50:43;11.60;99.90
14053;DHT22;7101;51.600;7.310;2022-10-22T00:53:14;11.60;99.90
14053;DHT22;7101;51.600;7.310;2022-10-22T00:55:43;11.60;99.90
14053;DHT22;7101;51.600;7.310;2022-10-22T00:58:12;11.60;99.90
14053;DHT22;7101;51.600;7.310;2022-10-22T01:00:40;11.50;99.90
14053;DHT22;7101;51.600;7.310;2022-10-22T01:03:07;11.60;99.90
14053;DHT22;7101;51.600;7.310;2022-10-22T01:05:42;11.60;99.90
14053;DHT22;7101;51.600;7.310;2022-10-22T01:08:15;11.60;99.90
14053;DHT22;7101;51.600;7.310;2022-10-22T01:10:55;11.60;99.90
14053;DHT22;7101;51.600;7.310;2022-10-22T01:13:32;11.60;99.90
14053;DHT22;7101;51.600;7.310;2022-10-22T01:16:09;11.50;99.90
14053;DHT22;7101;51.600;7.310;2022-10-22T01:18:42;11.50;99.90
14053;DHT22;7101;51.600;7.310;2022-10-22T01:21:24;11.40;99.90
14053;DHT22;7101;51.600;7.310;2022-10-22T01:24:22;11.30;99.90
14053;DHT22;7101;51.600;7.310;2022-10-22T01:27:19;11.40;99.90
14053;DHT22;7101;51.600;7.310;2022-10-22T01:29:50;11.30;99.90
14053;DHT22;7101;51.600;7.310;2022-10-22T01:32:22;11.30;99.90
14053;DHT22;7101;51.600;7.310;2022-10-22T01:34:54;11.20;99.90
14053;DHT22;7101;51.600;7.310;2022-10-22T01:37:25;11.30;99.90
14053;DHT22;7101;51.600;7.310;2022-10-22T01:39:55;11.30;99.90
14053;DHT22;7101;51.600;7.310;2022-10-22T01:42:23;11.30;99.90
14053;DHT22;7101;51.600;7.310;2022-10-22T01:44:53;11.30;99.90
14053;DHT22;7101;51.600;7.310;2022-10-22T01:47:29;11.30;99.90
14053;DHT22;7101;51.600;7.310;2022-10-22T01:50:31;11.30;99.90
14053;DHT22;7101;51.600;7.310;2022-10-22T01:53:12;11.40;99.90
14053;DHT22;7101;51.600;7.310;2022-10-22T01:55:53;11.40;99.90
14053;DHT22;7101;51.600;7.310;2022-10-22T01:58:29;11.40;99.90
14053;DHT22;7101;51.600;7.310;2022-10-22T02:01:04;11.30;99.90
14053;DHT22;7101;51.600;7.310;2022-10-22T02:03:36;11.30;99.90
14053;DHT22;7101;51.600;7.310;2022-10-22T02:06:08;11.30;99.90
14053;DHT22;7101;51.600;7.310;2022-10-22T02:08:38;11.20;99.90
14053;DHT22;7101;51.600;7.310;2022-10-22T02:11:06;11.20;99.90
14053;DHT22;7101;51.600;7.310;2022-10-22T02:13:36;11.20;99.90
14053;DHT22;7101;51.600;7.310;2022-10-22T02:16:08;11.20;99.90
14053;DHT22;7101;51.600;7.310;2022-10-22T02:18:39;11.20;99.90
14053;DHT22;7101;51.600;7.310;2022-10-22T02:21:08;11.20;99.90
14053;DHT22;7101;51.600;7.310;2022-10-22T02:23:35;11.20;99.90
14053;DHT22;7101;51.600;7.310;2022-10-22T02:26:06;11.10;99.90
14053;DHT22;7101;51.600;7.310;2022-10-22T02:28:40;11.10;99.90
14053;DHT22;7101;51.600;7.310;2022-10-22T02:31:14;11.10;99.90
14053;DHT22;7101;51.600;7.310;2022-10-22T02:33:45;11.10;99.90
14053;DHT22;7101;51.600;7.310;2022-10-22T02:36:14;11.10;99.90
14053;DHT22;7101;51.600;7.310;2022-10-22T02:38:41;11.10;99.90
14053;DHT22;7101;51.600;7.310;2022-10-22T02:41:09;11.10;99.90
14053;DHT22;7101;51.600;7.310;2022-10-22T02:43:40;11.00;99.90
14053;DHT22;7101;51.600;7.310;2022-10-22T02:46:08;11.10;99.90
14053;DHT22;7101;51.600;7.310;2022-10-22T02:48:36;11.00;99.90
14053;DHT22;7101;51.600;7.310;2022-10-22T02:51:03;11.00;99.90
14053;DHT22;7101;51.600;7.310;2022-10-22T02:53:30;11.00;99.90
14053;DHT22;7101;51.600;7.310;2022-10-22T02:55:57;11.10;99.90
14053;DHT22;7101;51.600;7.310;2022-10-22T02:58:24;11.10;99.90
14053;DHT22;7101;51.600;7.310;2022-10-22T03:00:51;11.10;99.90
14053;DHT22;7101;51.600;7.310;2022-10-22T03:03:17;11.00;99.90
14053;DHT22;7101;51.600;7.310;2022-10-22T03:05:46;11.00;99.90
14053;DHT22;7101;51.600;7.310;2022-10-22T03:08:13;10.90;99.90
14053;DHT22;7101;51.600;7.310;2022-10-22T03:10:40;10.90;99.90
14053;DHT22;7101;51.600;7.310;2022-10-22T03:13:06;10.90;99.90
14053;DHT22;7101;51.600;7.310;2022-10-22T03:15:33;11.00;99.90
14053;DHT22;7101;51.600;7.310;2022-10-22T03:18:00;11.00;99.90
14053;DHT22;7101;51.600;7.310;2022-10-22T03:20:27;10.90;99.90
14053;DHT22;7101;51.600;7.310;2022-10-22T03:22:55;10.90;99.90
14053;DHT22;7101;51.600;7.310;2022-10-22T03:25:26;10.90;99.90
14053;DHT22;7101;51.600;7.310;2022-10-22T03:27:56;10.80;99.90
14053;DHT22;7101;51.600;7.310;2022-10-22T03:30:26;10.80;99.90
14053;DHT22;7101;51.600;7.310;2022-10-22T03:32:53;10.70;99.90
14053;DHT22;7101;51.600;7.310;2022-10-22T03:35:20;10.70;99.90
14053;DHT22;7101;51.600;7.310;2022-10-22T03:37:47;10.60;99.90
14053;DHT22;7101;51.600;7.310;2022-10-22T03:40:15;10.60;99.90
14053;DHT22;7101;51.600;7.310;2022-10-22T03:42:42;10.50;99.90
14053;DHT22;7101;51.600;7.310;2022-10-22T03:45:10;10.40;99.90
14053;DHT22;7101;51.600;7.310;2022-10-22T03:47:37;10.30;99.90
14053;DHT22;7101;51.600;7.310;2022-10-22T03:50:05;10.30;99.90
14053;DHT22;7101;51.600;7.310;2022-10-22T03:52:37;10.20;99.90
14053;DHT22;7101;51.600;7.310;2022-10-22T03:55:06;10.20;99.90
14053;DHT22;7101;51.600;7.310;2022-10-22T03:57:35;10.10;99.90
14053;DHT22;7101;51.600;7.310;2022-10-22T04:00:03;10.20;99.90
14053;DHT22;7101;51.600;7.310;2022-10-22T04:02:30;10.10;99.90
14053;DHT22;7101;51.600;7.310;2022-10-22T04:04:57;10.10;99.90
14053;DHT22;7101;51.600;7.310;2022-10-22T04:07:24;10.10;99.90
14053;DHT22;7101;51.600;7.310;2022-10-22T04:09:51;10.10;99.90
14053;DHT22;7101;51.600;7.310;2022-10-22T04:12:18;10.10;99.90
14053;DHT22;7101;51.600;7.310;2022-10-22T04:14:46;10.00;99.90
14053;DHT22;7101;51.600;7.310;2022-10-22T04:17:13;10.00;99.90
14053;DHT22;7101;51.600;7.310;2022-10-22T04:19:40;10.00;99.90
14053;DHT22;7101;51.600;7.310;2022-10-22T04:22:07;9.90;99.90
14053;DHT22;7101;51.600;7.310;2022-10-22T04:24:34;9.90;99.90
14053;DHT22;7101;51.600;7.310;2022-10-22T04:27:04;10.00;99.90
14053;DHT22;7101;51.600;7.310;2022-10-22T04:29:31;10.00;99.90
14053;DHT22;7101;51.600;7.310;2022-10-22T04:31:59;10.00;99.90
14053;DHT22;7101;51.600;7.310;2022-10-22T04:34:27;10.00;99.90
14053;DHT22;7101;51.600;7.310;2022-10-22T04:36:55;10.10;99.90
14053;DHT22;7101;51.600;7.310;2022-10-22T04:39:22;10.00;99.90
14053;DHT22;7101;51.600;7.310;2022-10-22T04:41:50;10.00;99.90
14053;DHT22;7101;51.600;7.310;2022-10-22T04:44:17;10.00;99.90
14053;DHT22;7101;51.600;7.310;2022-10-22T04:46:43;10.00;99.90
14053;DHT22;7101;51.600;7.310;2022-10-22T04:49:12;10.00;99.90
14053;DHT22;7101;51.600;7.310;2022-10-22T04:51:39;10.00;99.90
14053;DHT22;7101;51.600;7.310;2022-10-22T04:54:08;10.00;99.90
14053;DHT22;7101;51.600;7.310;2022-10-22T04:56:36;10.00;99.90
14053;DHT22;7101;51.600;7.310;2022-10-22T04:59:04;10.00;99.90
14053;DHT22;7101;51.600;7.310;2022-10-22T05:01:34;9.90;99.90
14053;DHT22;7101;51.600;7.310;2022-10-22T05:04:03;9.90;99.90
14053;DHT22;7101;51.600;7.310;2022-10-22T05:06:34;9.90;99.90
14053;DHT22;7101;51.600;7.310;2022-10-22T05:09:04;9.90;99.90
14053;DHT22;7101;51.600;7.310;2022-10-22T05:11:33;9.90;99.90
14053;DHT22;7101;51.600;7.310;2022-10-22T05:14:03;9.90;99.90
14053;DHT22;7101;51.600;7.310;2022-10-22T05:16:30;9.90;99.90
14053;DHT22;7101;51.600;7.310;2022-10-22T05:18:59;10.00;99.90
14053;DHT22;7101;51.600;7.310;2022-10-22T05:21:27;10.10;99.90
14053;DHT22;7101;51.600;7.310;2022-10-22T05:23:59;10.10;99.90
14053;DHT22;7101;51.600;7.310;2022-10-22T05:26:26;10.30;99.90
14053;DHT22;7101;51.600;7.310;2022-10-22T05:28:54;10.30;99.90
14053;DHT22;7101;51.600;7.310;2022-10-22T05:31:21;10.30;99.90
14053;DHT22;7101;51.600;7.310;2022-10-22T05:33:48;10.30;99.90
14053;DHT22;7101;51.600;7.310;2022-10-22T05:36:16;10.40;99.90
14053;DHT22;7101;51.600;7.310;2022-10-22T05:38:44;10.40;99.90
14053;DHT22;7101;51.600;7.310;2022-10-22T05:41:13;10.50;99.90
14053;DHT22;7101;51.600;7.310;2022-10-22T05:43:43;10.60;99.90
14053;DHT22;7101;51.600;7.310;2022-10-22T05:46:12;10.80;99.90
14053;DHT22;7101;51.600;7.310;2022-10-22T05:48:39;11.10;99.90
14053;DHT22;7101;51.600;7.310;2022-10-22T05:51:09;11.30;99.90
14053;DHT22;7101;51.600;7.310;2022-10-22T05:53:38;11.40;99.90
14053;DHT22;7101;51.600;7.310;2022-10-22T05:56:08;11.60;99.90
14053;DHT22;7101;51.600;7.310;2022-10-22T05:58:41;11.80;99.90
14053;DHT22;7101;51.600;7.310;2022-10-22T06:01:12;11.90;99.90
14053;DHT22;7101;51.600;7.310;2022-10-22T06:03:41;12.10;99.90
14053;DHT22;7101;51.600;7.310;2022-10-22T06:06:18;12.20;99.90
14053;DHT22;7101;51.600;7.310;2022-10-22T06:08:48;12.30;99.90
14053;DHT22;7101;51.600;7.310;2022-10-22T06:11:18;12.30;99.90
14053;DHT22;7101;51.600;7.310;2022-10-22T06:13:48;12.40;99.90
14053;DHT22;7101;51.600;7.310;2022-10-22T06:16:16;12.50;99.90
14053;DHT22;7101;51.600;7.310;2022-10-22T06:18:45;12.60;99.90
14053;DHT22;7101;51.600;7.310;2022-10-22T06:21:14;12.70;99.90
14053;DHT22;7101;51.600;7.310;2022-10-22T06:23:42;12.70;99.90
14053;DHT22;7101;51.600;7.310;2022-10-22T06:26:09;12.80;99.90
14053;DHT22;7101;51.600;7.310;2022-10-22T06:28:36;12.80;99.90
14053;DHT22;7101;51.600;7.310;2022-10-22T06:31:05;12.80;99.90
14053;DHT22;7101;51.600;7.310;2022-10-22T06:33:36;12.80;99.90
14053;DHT22;7101;51.600;7.310;2022-10-22T06:36:08;12.80;99.90
14053;DHT22;7101;51.600;7.310;2022-10-22T06:38:37;12.80;99.90
14053;DHT22;7101;51.600;7.310;2022-10-22T06:41:07;12.80;99.90
14053;DHT22;7101;51.600;7.310;2022-10-22T06:43:34;12.80;99.90
14053;DHT22;7101;51.600;7.310;2022-10-22T06:46:02;12.90;99.90
14053;DHT22;7101;51.600;7.310;2022-10-22T06:48:30;12.90;99.90
14053;DHT22;7101;51.600;7.310;2022-10-22T06:51:00;13.00;99.90
14053;DHT22;7101;51.600;7.310;2022-10-22T06:53:27;13.00;99.90
14053;DHT22;7101;51.600;7.310;2022-10-22T06:55:54;13.10;99.90
14053;DHT22;7101;51.600;7.310;2022-10-22T06:58:21;13.20;99.90
14053;DHT22;7101;51.600;7.310;2022-10-22T07:00:48;13.20;99.90
14053;DHT22;7101;51.600;7.310;2022-10-22T07:03:16;13.40;99.90
14053;DHT22;7101;51.600;7.310;2022-10-22T07:05:46;13.60;99.90
14053;DHT22;7101;51.600;7.310;2022-10-22T07:08:13;14.40;99.90
14053;DHT22;7101;51.600;7.310;2022-10-22T07:10:41;15.00;99.90
14053;DHT22;7101;51.600;7.310;2022-10-22T07:13:08;15.60;99.90
14053;DHT22;7101;51.600;7.310;2022-10-22T07:15:35;16.20;99.90
14053;DHT22;7101;51.600;7.310;2022-10-22T07:18:04;16.70;99.90
14053;DHT22;7101;51.600;7.310;2022-10-22T07:20:32;17.10;99.90
14053;DHT22;7101;51.600;7.310;2022-10-22T07:23:00;17.10;99.90
14053;DHT22;7101;51.600;7.310;2022-10-22T07:25:27;16.60;99.90
14053;DHT22;7101;51.600;7.310;2022-10-22T07:27:53;16.20;99.90
14053;DHT22;7101;51.600;7.310;2022-10-22T07:30:21;15.80;99.90
14053;DHT22;7101;51.600;7.310;2022-10-22T07:32:47;15.40;99.90
14053;DHT22;7101;51.600;7.310;2022-10-22T07:35:14;15.20;99.90
14053;DHT22;7101;51.600;7.310;2022-10-22T07:37:41;15.00;99.90
14053;DHT22;7101;51.600;7.310;2022-10-22T07:40:11;14.90;99.90
14053;DHT22;7101;51.600;7.310;2022-10-22T07:42:38;14.90;99.90
14053;DHT22;7101;51.600;7.310;2022-10-22T07:45:11;14.80;99.90
14053;DHT22;7101;51.600;7.310;2022-10-22T07:47:38;15.00;99.90
14053;DHT22;7101;51.600;7.310;2022-10-22T07:50:05;15.10;99.90
14053;DHT22;7101;51.600;7.310;2022-10-22T07:52:32;15.40;99.90
14053;DHT22;7101;51.600;7.310;2022-10-22T07:54:59;15.50;99.90
14053;DHT22;7101;51.600;7.310;2022-10-22T07:57:28;15.60;99.90
14053;DHT22;7101;51.600;7.310;2022-10-22T07:59:54;15.70;99.90
14053;DHT22;7101;51.600;7.310;2022-10-22T08:02:22;15.80;99.90
14053;DHT22;7101;51.600;7.310;2022-10-22T08:04:49;15.90;99.90
14053;DHT22;7101;51.600;7.310;2022-10-22T08:07:16;15.90;99.90
14053;DHT22;7101;51.600;7.310;2022-10-22T08:09:43;16.00;99.90
14053;DHT22;7101;51.600;7.310;2022-10-22T08:12:10;16.10;99.90
14053;DHT22;7101;51.600;7.310;2022-10-22T08:14:38;16.30;99.90
14053;DHT22;7101;51.600;7.310;2022-10-22T08:17:06;16.50;99.90
14053;DHT22;7101;51.600;7.310;2022-10-22T08:19:35;16.40;99.90
14053;DHT22;7101;51.600;7.310;2022-10-22T08:22:03;16.40;99.90
14053;DHT22;7101;51.600;7.310;2022-10-22T08:24:29;16.30;99.90
14053;DHT22;7101;51.600;7.310;2022-10-22T08:26:56;16.40;99.90
14053;DHT22;7101;51.600;7.310;2022-10-22T08:29:24;16.50;99.90
14053;DHT22;7101;51.600;7.310;2022-10-22T08:31:53;16.70;99.90
14053;DHT22;7101;51.600;7.310;2022-10-22T08:34:20;16.80;99.90
14053;DHT22;7101;51.600;7.310;2022-10-22T08:36:47;16.90;99.90
14053;DHT22;7101;51.600;7.310;2022-10-22T08:39:14;17.10;99.90
14053;DHT22;7101;51.600;7.310;2022-10-22T08:41:51;17.10;99.90
14053;DHT22;7101;51.600;7.310;2022-10-22T08:44:31;17.30;99.90
14053;DHT22;7101;51.600;7.310;2022-10-22T08:47:19;17.40;99.90
14053;DHT22;7101;51.600;7.310;2022-10-22T08:49:52;17.50;99.90
14053;DHT22;7101;51.600;7.310;2022-10-22T08:52:21;17.60;99.90
14053;DHT22;7101;51.600;7.310;2022-10-22T08:54:51;17.40;99.90
14053;DHT22;7101;51.600;7.310;2022-10-22T08:57:37;17.30;99.90
14053;DHT22;7101;51.600;7.310;2022-10-22T09:00:10;17.10;99.90
14053;DHT22;7101;51.600;7.310;2022-10-22T09:02:50;17.00;99.90
14053;DHT22;7101;51.600;7.310;2022-10-22T09:05:30;16.80;99.90
14053;DHT22;7101;51.600;7.310;2022-10-22T09:07:58;16.90;99.90
14053;DHT22;7101;51.600;7.310;2022-10-22T09:10:30;16.80;99.90
14053;DHT22;7101;51.600;7.310;2022-10-22T09:12:58;16.70;99.90
14053;DHT22;7101;51.600;7.310;2022-10-22T09:15:25;16.60;99.90
14053;DHT22;7101;51.600;7.310;2022-10-22T09:18:02;16.60;99.90
14053;DHT22;7101;51.600;7.310;2022-10-22T09:20:36;16.50;99.90
14053;DHT22;7101;51.600;7.310;2022-10-22T09:23:18;16.50;99.90
14053;DHT22;7101;51.600;7.310;2022-10-22T09:25:48;16.60;99.90
14053;DHT22;7101;51.600;7.310;2022-10-22T09:28:16;16.70;99.90
14053;DHT22;7101;51.600;7.310;2022-10-22T09:30:43;16.80;99.90
14053;DHT22;7101;51.600;7.310;2022-10-22T09:33:14;16.90;99.90
14053;DHT22;7101;51.600;7.310;2022-10-22T09:35:46;17.00;99.90
14053;DHT22;7101;51.600;7.310;2022-10-22T09:38:16;17.10;99.90
14053;DHT22;7101;51.600;7.310;2022-10-22T09:40:48;17.20;99.90
14053;DHT22;7101;51.600;7.310;2022-10-22T09:43:16;17.30;99.90
14053;DHT22;7101;51.600;7.310;2022-10-22T09:45:44;17.30;99.90
14053;DHT22;7101;51.600;7.310;2022-10-22T09:48:18;17.40;99.90
14053;DHT22;7101;51.600;7.310;2022-10-22T09:50:48;17.50;99.90
14053;DHT22;7101;51.600;7.310;2022-10-22T09:53:18;17.50;99.90
14053;DHT22;7101;51.600;7.310;2022-10-22T09:55:50;17.60;99.90
14053;DHT22;7101;51.600;7.310;2022-10-22T09:58:17;17.50;99.90
14053;DHT22;7101;51.600;7.310;2022-10-22T10:00:47;17.60;99.90
14053;DHT22;7101;51.600;7.310;2022-10-22T10:03:21;17.60;99.90
14053;DHT22;7101;51.600;7.310;2022-10-22T10:05:51;17.80;99.90
14053;DHT22;7101;51.600;7.310;2022-10-22T10:08:19;17.80;99.90
14053;DHT22;7101;51.600;7.310;2022-10-22T10:10:47;17.80;99.90
14053;DHT22;7101;51.600;7.310;2022-10-22T10:13:45;17.70;99.90
14053;DHT22;7101;51.600;7.310;2022-10-22T10:16:25;17.60;99.90
14053;DHT22;7101;51.600;7.310;2022-10-22T10:19:07;17.70;99.90
14053;DHT22;7101;51.600;7.310;2022-10-22T10:21:47;17.50;99.90
14053;DHT22;7101;51.600;7.310;2022-10-22T10:24:21;17.30;99.90
14053;DHT22;7101;51.600;7.310;2022-10-22T10:26:53;17.40;99.90
14053;DHT22;7101;51.600;7.310;2022-10-22T10:29:32;17.40;99.90
14053;DHT22;7101;51.600;7.310;2022-10-22T10:32:18;17.40;99.90
14053;DHT22;7101;51.600;7.310;2022-10-22T10:34:58;17.40;99.90
14053;DHT22;7101;51.600;7.310;2022-10-22T10:37:33;17.30;99.90
14053;DHT22;7101;51.600;7.310;2022-10-22T10:40:18;17.30;99.90
14053;DHT22;7101;51.600;7.310;2022-10-22T10:42:52;17.30;99.90
14053;DHT22;7101;51.600;7.310;2022-10-22T10:45:25;17.30;99.90
14053;DHT22;7101;51.600;7.310;2022-10-22T10:48:08;17.40;99.90
14053;DHT22;7101;51.600;7.310;2022-10-22T10:50:49;17.30;99.90
14053;DHT22;7101;51.600;7.310;2022-10-22T10:53:26;17.50;99.90
14053;DHT22;7101;51.600;7.310;2022-10-22T10:56:01;17.60;99.90
14053;DHT22;7101;51.600;7.310;2022-10-22T10:58:39;17.70;99.90
14053;DHT22;7101;51.600;7.310;2022-10-22T11:01:14;17.70;99.90
14053;DHT22;7101;51.600;7.310;2022-10-22T11:04:02;17.90;99.90
14053;DHT22;7101;51.600;7.310;2022-10-22T11:06:38;18.00;99.90
14053;DHT22;7101;51.600;7.310;2022-10-22T11:09:10;18.10;99.90
14053;DHT22;7101;51.600;7.310;2022-10-22T11:11:44;18.20;99.90
14053;DHT22;7101;51.600;7.310;2022-10-22T11:14:18;18.40;99.90
14053;DHT22;7101;51.600;7.310;2022-10-22T11:16:49;18.60;99.90
14053;DHT22;7101;51.600;7.310;2022-10-22T11:19:21;18.60;99.90
14053;DHT22;7101;51.600;7.310;2022-10-22T11:21:55;18.60;99.90
14053;DHT22;7101;51.600;7.310;2022-10-22T11:24:27;18.90;99.90
14053;DHT22;7101;51.600;7.310;2022-10-22T11:27:03;19.00;99.90
14053;DHT22;7101;51.600;7.310;2022-10-22T11:29:33;19.00;99.90
14053;DHT22;7101;51.600;7.310;2022-10-22T11:32:07;18.90;99.90
14053;DHT22;7101;51.600;7.310;2022-10-22T11:34:41;18.90;99.90
14053;DHT22;7101;51.600;7.310;2022-10-22T11:37:13;18.60;99.90
14053;DHT22;7101;51.600;7.310;2022-10-22T11:39:47;18.40;99.90
14053;DHT22;7101;51.600;7.310;2022-10-22T11:42:19;18.40;99.90
14053;DHT22;7101;51.600;7.310;2022-10-22T11:44:59;18.40;99.90
14053;DHT22;7101;51.600;7.310;2022-10-22T11:47:28;18.40;99.90
14053;DHT22;7101;51.600;7.310;2022-10-22T11:49:57;18.20;99.90
14053;DHT22;7101;51.600;7.310;2022-10-22T11:52:37;18.10;99.90
14053;DHT22;7101;51.600;7.310;2022-10-22T11:55:31;18.30;99.90
14053;DHT22;7101;51.600;7.310;2022-10-22T11:57:59;18.60;99.90
14053;DHT22;7101;51.600;7.310;2022-10-22T12:00:33;18.40;99.90
14053;DHT22;7101;51.600;7.310;2022-10-22T12:03:02;18.20;99.90
14053;DHT22;7101;51.600;7.310;2022-10-22T12:05:33;18.10;99.90
14053;DHT22;7101;51.600;7.310;2022-10-22T12:08:13;18.20;99.90
14053;DHT22;7101;51.600;7.310;2022-10-22T12:10:59;18.50;99.90
14053;DHT22;7101;51.600;7.310;2022-10-22T12:13:31;18.50;99.90
14053;DHT22;7101;51.600;7.310;2022-10-22T12:16:02;18.50;99.90
14053;DHT22;7101;51.600;7.310;2022-10-22T12:18:34;18.50;99.90
14053;DHT22;7101;51.600;7.310;2022-10-22T12:21:04;18.40;99.90
14053;DHT22;7101;51.600;7.310;2022-10-22T12:23:34;18.50;99.90
14053;DHT22;7101;51.600;7.310;2022-10-22T12:26:03;18.30;99.90
14053;DHT22;7101;51.600;7.310;2022-10-22T12:28:37;18.20;99.90
14053;DHT22;7101;51.600;7.310;2022-10-22T12:31:05;18.00;99.90
14053;DHT22;7101;51.600;7.310;2022-10-22T12:33:32;18.00;99.90
14053;DHT22;7101;51.600;7.310;2022-10-22T12:36:00;18.00;99.90
14053;DHT22;7101;51.600;7.310;2022-10-22T12:38:28;17.80;99.90
14053;DHT22;7101;51.600;7.310;2022-10-22T12:40:57;17.60;99.90
14053;DHT22;7101;51.600;7.310;2022-10-22T12:43:27;17.50;99.90
14053;DHT22;7101;51.600;7.310;2022-10-22T12:45:55;17.40;99.90
14053;DHT22;7101;51.600;7.310;2022-10-22T12:48:25;17.40;99.90
14053;DHT22;7101;51.600;7.310;2022-10-22T12:50:54;17.60;99.90
14053;DHT22;7101;51.600;7.310;2022-10-22T12:53:24;17.60;99.90
14053;DHT22;7101;51.600;7.310;2022-10-22T12:55:53;17.70;99.90
14053;DHT22;7101;51.600;7.310;2022-10-22T12:58:26;17.80;99.90
14053;DHT22;7101;51.600;7.310;2022-10-22T13:00:56;17.80;99.90
14053;DHT22;7101;51.600;7.310;2022-10-22T13:03:29;17.90;99.90
14053;DHT22;7101;51.600;7.310;2022-10-22T13:05:56;18.00;99.90
14053;DHT22;7101;51.600;7.310;2022-10-22T13:08:38;18.20;99.90
14053;DHT22;7101;51.600;7.310;2022-10-22T13:11:08;18.20;99.90
14053;DHT22;7101;51.600;7.310;2022-10-22T13:13:42;18.20;99.90
14053;DHT22;7101;51.600;7.310;2022-10-22T13:16:14;18.20;99.90
14053;DHT22;7101;51.600;7.310;2022-10-22T13:18:42;18.00;99.90
14053;DHT22;7101;51.600;7.310;2022-10-22T13:21:25;18.20;99.90
14053;DHT22;7101;51.600;7.310;2022-10-22T13:23:57;18.20;99.90
14053;DHT22;7101;51.600;7.310;2022-10-22T13:26:31;18.30;99.90
14053;DHT22;7101;51.600;7.310;2022-10-22T13:29:02;18.40;99.90
14053;DHT22;7101;51.600;7.310;2022-10-22T13:31:34;18.30;99.90
14053;DHT22;7101;51.600;7.310;2022-10-22T13:34:05;18.30;99.90
14053;DHT22;7101;51.600;7.310;2022-10-22T13:36:34;18.30;99.90
14053;DHT22;7101;51.600;7.310;2022-10-22T13:39:03;18.30;99.90
14053;DHT22;7101;51.600;7.310;2022-10-22T13:41:37;18.10;99.90
14053;DHT22;7101;51.600;7.310;2022-10-22T13:44:06;18.10;99.90
14053;DHT22;7101;51.600;7.310;2022-10-22T13:46:34;18.10;99.90
14053;DHT22;7101;51.600;7.310;2022-10-22T13:49:11;17.90;99.90
14053;DHT22;7101;51.600;7.310;2022-10-22T13:51:39;17.90;99.90
14053;DHT22;7101;51.600;7.310;2022-10-22T13:54:14;17.80;99.90
14053;DHT22;7101;51.600;7.310;2022-10-22T13:56:41;17.80;99.90
14053;DHT22;7101;51.600;7.310;2022-10-22T13:59:10;17.70;99.90
14053;DHT22;7101;51.600;7.310;2022-10-22T14:01:38;17.60;99.90
14053;DHT22;7101;51.600;7.310;2022-10-22T14:04:07;17.50;99.90
14053;DHT22;7101;51.600;7.310;2022-10-22T14:06:36;17.50;99.90
14053;DHT22;7101;51.600;7.310;2022-10-22T14:09:05;17.60;99.90
14053;DHT22;7101;51.600;7.310;2022-10-22T14:11:34;17.50;99.90
14053;DHT22;7101;51.600;7.310;2022-10-22T14:14:01;17.40;99.90
14053;DHT22;7101;51.600;7.310;2022-10-22T14:16:34;17.50;99.90
14053;DHT22;7101;51.600;7.310;2022-10-22T14:19:02;17.60;99.90
14053;DHT22;7101;51.600;7.310;2022-10-22T14:21:35;17.80;99.90
14053;DHT22;7101;51.600;7.310;2022-10-22T14:24:03;17.80;99.90
14053;DHT22;7101;51.600;7.310;2022-10-22T14:26:31;17.90;99.90
14053;DHT22;7101;51.600;7.310;2022-10-22T14:29:00;18.00;99.90
14053;DHT22;7101;51.600;7.310;2022-10-22T14:31:26;17.90;99.90
14053;DHT22;7101;51.600;7.310;2022-10-22T14:33:55;17.90;99.90
14053;DHT22;7101;51.600;7.310;2022-10-22T14:36:22;17.80;99.90
14053;DHT22;7101;51.600;7.310;2022-10-22T14:38:49;17.80;99.90
14053;DHT22;7101;51.600;7.310;2022-10-22T14:41:18;17.90;99.90
14053;DHT22;7101;51.600;7.310;2022-10-22T14:43:46;17.90;99.90
14053;DHT22;7101;51.600;7.310;2022-10-22T14:46:15;17.90;99.90
14053;DHT22;7101;51.600;7.310;2022-10-22T14:48:42;17.80;99.90
14053;DHT22;7101;51.600;7.310;2022-10-22T14:51:13;17.80;99.90
14053;DHT22;7101;51.600;7.310;2022-10-22T14:53:41;17.70;99.90
14053;DHT22;7101;51.600;7.310;2022-10-22T14:56:10;17.70;99.90
14053;DHT22;7101;51.600;7.310;2022-10-22T14:58:37;17.80;99.90
14053;DHT22;7101;51.600;7.310;2022-10-22T15:01:05;17.70;99.90
14053;DHT22;7101;51.600;7.310;2022-10-22T15:03:32;17.60;99.90
14053;DHT22;7101;51.600;7.310;2022-10-22T15:05:58;17.40;99.90
14053;DHT22;7101;51.600;7.310;2022-10-22T15:08:27;17.20;99.90
14053;DHT22;7101;51.600;7.310;2022-10-22T15:10:59;17.10;99.90
14053;DHT22;7101;51.600;7.310;2022-10-22T15:13:27;17.00;99.90
14053;DHT22;7101;51.600;7.310;2022-10-22T15:15:54;16.90;99.90
14053;DHT22;7101;51.600;7.310;2022-10-22T15:18:24;16.80;99.90
14053;DHT22;7101;51.600;7.310;2022-10-22T15:20:55;16.70;99.90
14053;DHT22;7101;51.600;7.310;2022-10-22T15:23:22;16.60;99.90
14053;DHT22;7101;51.600;7.310;2022-10-22T15:25:51;16.40;99.90
14053;DHT22;7101;51.600;7.310;2022-10-22T15:28:23;16.40;99.90
14053;DHT22;7101;51.600;7.310;2022-10-22T15:30:54;16.40;99.90
14053;DHT22;7101;51.600;7.310;2022-10-22T15:33:21;16.20;99.90
14053;DHT22;7101;51.600;7.310;2022-10-22T15:35:49;16.30;99.90
14053;DHT22;7101;51.600;7.310;2022-10-22T15:38:16;16.10;99.90
14053;DHT22;7101;51.600;7.310;2022-10-22T15:40:44;16.10;99.90
14053;DHT22;7101;51.600;7.310;2022-10-22T15:43:18;16.10;99.90
14053;DHT22;7101;51.600;7.310;2022-10-22T15:45:49;16.00;99.90
14053;DHT22;7101;51.600;7.310;2022-10-22T15:48:30;15.90;99.90
14053;DHT22;7101;51.600;7.310;2022-10-22T15:50:57;15.90;99.90
14053;DHT22;7101;51.600;7.310;2022-10-22T15:53:24;15.80;99.90
14053;DHT22;7101;51.600;7.310;2022-10-22T15:55:51;15.80;99.90
14053;DHT22;7101;51.600;7.310;2022-10-22T15:58:21;15.70;99.90
14053;DHT22;7101;51.600;7.310;2022-10-22T16:00:47;15.70;99.90
14053;DHT22;7101;51.600;7.310;2022-10-22T16:03:16;15.70;99.90
14053;DHT22;7101;51.600;7.310;2022-10-22T16:05:49;15.60;99.90
14053;DHT22;7101;51.600;7.310;2022-10-22T16:08:16;15.50;99.90